Le Roy, Illinois
Current Conditions -  °F | °C
As of 9:56 PM on Friday 19 Dec 2014 (Local Time) from KBMI Reporting Station
Clear Clear  
Wind Chill: -4°   Ceiling: Unl
Heat Index: -4°   Visibility: 7mi
Dew Point: -5°   Wind: 0mph
Humidity: 91%   Direction: NA
Pressure: 30.26"   Gusts: NA
Location:  40.35°N, 88.76°W
Report Text: KBMI 200356Z 00000KT 7SM CLR M04/M05 A3026 RMK AO2 T10381050 SLP270
Loading
Personal Weather Stations






























Interactive Weather Map New forecast layout! Learn more

10-Day Weather Forecast

Advertisements
Track Severe Weather on mobile